Joshua Tree National Park, CA

7:14 PM PDT on October 22, 2014 (GMT -0700)
Rural | Change Station
CLOSE
Current Station
Personal Weather Station
Location: Twentynine Palms, CA
Elevation: 2133 ft
Nearby Weather Stations

Elev 2133 ft 34.16 °N, 116.10 °W | Updated 1 second ago

Partly Cloudy
Partly Cloudy
72.4 °F
Feels Like 76 °F
N
2.0
Wind Variable Wind from SW
Gusts 3.0 mph

Today
High -- | Low -- °F
--% Chance of Precip.
Yesterday
High -- | Low -- °F
Precip. -- in
6:55 AM 6:01 PM
Waning Crescent, 1% visible
Pressure 29.97 in
Visibility 10.0 miles
Clouds Scattered Clouds 20000 ft
Heat Index 76 °F
Dew Point 34 °F
Humidity 24%
Rainfall 0.00 in
Snow Depth Not available.
UV 0 out of 12
Pollen 3.90 out of 12
Ozone Good
Flu Activity Sporadic
METAR KNXP 230156Z 23004KT 10SM SCT200 23/02 A3005 RMK AO2 SLP147 T02330017

More Conditions Fewer Conditions

Pressure 29.97 in
Visibility 10.0 miles
Clouds Scattered Clouds 20000 ft
Heat Index 76 °F
Dew Point 34 °F
Humidity 24%
Rainfall 0.00 in
Snow Depth Not available.
UV 0 out of 12
Pollen 3.90 out of 12
Ozone Good
Flu Activity Sporadic
METAR KNXP 230156Z 23004KT 10SM SCT200 23/02 A3005 RMK AO2 SLP147 T02330017

More Conditions Fewer Conditions

10-Day Weather Forecast

Almanac

Astronomy

Oct. 22, 2014 Rise Set
Actual Time 6:55 AM PDT 6:01 PM PDT
Civil Twilight 6:29 AM PDT 6:26 PM PDT
Nautical Twilight 6:00 AM PDT 6:56 PM PDT
Astronomical Twilight 5:31 AM PDT 7:25 PM PDT
Moon 5:44 AM PDT (10/22) 5:28 PM PDT (10/22)
Length of Visible Light 11h 57m
Length of Day
11h 06m
Tomorrow will be 1m 58s shorter.
Waning Crescent, 1% of the Moon is Illuminated
Today
Waning Crescent
Oct 23
New
Oct 30
First Quarter
Nov 6
Full
Nov 14
Last Quarter

Today's Extremes

State Highs State Lows

Community

WunderPhotos

Upload Photos

1,764,109 photos uploaded!

Nearby

Air Quality

  Air Quality AQ Index Pollutant
Yesterday Good
OZONE
Yesterday Good
PM10
Current Good
OZONE
Thursday Good
PM10
Thursday Good
OZONE
Thursday Good
CO
Thursday Good
NO2

Snow Depth

Station Depth Elevation
Leavitt Lake 0 in 9400 ft
Leavitt Meadows 0 in 7200 ft
Summit Meadow 0 in 9122 ft
Tahoe City Cross 0 in 6750 ft
Ward Creek #3 0 in 6750 ft

Earthquake Activity

City Distance Mag. Time & Date
Delta, Mexico 128 miles 2.5 8:53 PM PDT
2014-10-21
Alberto Oviedo Mota, Mexico 144 miles 3.3 3:57 PM PDT
2014-10-21
Minimum magnitude displayed is 2.5.

Coastal Water Temperatures

Place Temperature
No Stations Reporting

Nearby Weather Stations